Dost 1 — TCPI — position and weather

sailwx.info

Track history (hours):
 
Tides and Currents Weather Stations Pressure Air Temp Water Temp Dewpoint Dewpoint Depression Visibility Wind Speed Wind Dir Waves Ship Positions

Dost 1

Last reported at 2014-Jul-23 01:33 UTC. Time now 2014-Jul-25 11:28 UTC.
Position N 40°58' E 028°58'.

Length 115 m; draft 6.8 m.

Type: Cargo ship. MMSI: 271000303.

Date/timePositionNaut miles runAvg speedWind from/ knotsBaromVisibWave heightAir tempDewpointWater temp
2014-Jul-23 01:33N 40°58' E 028°58'270 9.2
2014-Jul-21 20:06N 43°16' E 034°12'611.6
2014-Jul-21 19:33N 43°19' E 034°19'1211.6
2014-Jul-21 18:33N 43°25' E 034°33'1211.6
2014-Jul-21 17:33N 43°30' E 034°48'1211.6
2014-Jul-21 16:33N 43°35' E 035°02'1611.6
2014-Jul-21 15:10N 43°42' E 035°22'711.8
2014-Jul-21 14:33N 43°45' E 035°31'1311.8
2014-Jul-21 13:25N 43°51' E 035°48'  
2014-Jul-18 13:22N 44°39' E 037°54'0 0.0
2014-Jul-18 12:22N 44°39' E 037°54'0 0.0
2014-Jul-17 13:16N 44°39' E 037°53'0 0.0
2014-Jul-17 08:29N 44°39' E 037°53'0 0.1
2014-Jul-17 07:32N 44°39' E 037°53'0 0.0
2014-Jul-17 06:32N 44°39' E 037°53'0 0.0
2014-Jul-16 09:31N 44°39' E 037°53'128 2.5
2014-Jul-14 07:04N 43°34' E 035°20'2012.9
2014-Jul-14 05:29N 43°25' E 034°55'1213.2
2014-Jul-14 04:33N 43°20' E 034°40'25413.3
2014-Jul-13 09:33N 41°24' E 029°35'1313.0
2014-Jul-13 08:33N 41°18' E 029°19'  
Track history (hours):
 
Tides and Currents Weather Stations Pressure Air Temp Water Temp Dewpoint Dewpoint Depression Visibility Wind Speed Wind Dir Waves Ship Positions

Dost 1

Last reported at 2014-Jul-23 01:33 UTC. Time now 2014-Jul-25 11:28 UTC.
Position N 40°58' E 028°58'.

Length 115 m; draft 6.8 m.

Type: Cargo ship. MMSI: 271000303.

Date/timePositionNaut miles runAvg speedWind from/ knotsBaromVisibWave heightAir tempDewpointWater temp
2014-Jul-23 01:33N 40°58' E 028°58'270 9.2
2014-Jul-21 20:06N 43°16' E 034°12'611.6
2014-Jul-21 19:33N 43°19' E 034°19'1211.6
2014-Jul-21 18:33N 43°25' E 034°33'1211.6
2014-Jul-21 17:33N 43°30' E 034°48'1211.6
2014-Jul-21 16:33N 43°35' E 035°02'1611.6
2014-Jul-21 15:10N 43°42' E 035°22'711.8
2014-Jul-21 14:33N 43°45' E 035°31'1311.8
2014-Jul-21 13:25N 43°51' E 035°48'  
2014-Jul-18 13:22N 44°39' E 037°54'0 0.0
2014-Jul-18 12:22N 44°39' E 037°54'0 0.0
2014-Jul-17 13:16N 44°39' E 037°53'0 0.0
2014-Jul-17 08:29N 44°39' E 037°53'0 0.1
2014-Jul-17 07:32N 44°39' E 037°53'0 0.0
2014-Jul-17 06:32N 44°39' E 037°53'0 0.0
2014-Jul-16 09:31N 44°39' E 037°53'128 2.5
2014-Jul-14 07:04N 43°34' E 035°20'2012.9
2014-Jul-14 05:29N 43°25' E 034°55'1213.2
2014-Jul-14 04:33N 43°20' E 034°40'25413.3
2014-Jul-13 09:33N 41°24' E 029°35'1313.0
2014-Jul-13 08:33N 41°18' E 029°19'  

Dump ship's entire track history